createdAt,value
2017-08-07T00:04:27.712Z,101102
2017-08-07T00:09:31.670Z,101101
2017-08-07T00:14:34.896Z,101093
2017-08-07T00:19:38.062Z,101081
2017-08-07T00:24:41.238Z,101079
2017-08-07T00:29:44.410Z,101072
2017-08-07T00:34:47.585Z,101072
2017-08-07T00:39:51.589Z,101066
2017-08-07T00:44:54.765Z,101066
2017-08-07T00:49:57.960Z,101058
2017-08-07T00:55:01.153Z,101061
2017-08-07T01:00:04.348Z,101059
2017-08-07T01:05:07.527Z,101056
2017-08-07T01:10:11.466Z,101061
2017-08-07T01:15:15.413Z,101050
2017-08-07T01:20:18.606Z,101045
2017-08-07T01:25:21.825Z,101048
2017-08-07T01:30:24.999Z,101038
2017-08-07T01:35:28.936Z,101030
2017-08-07T01:40:32.119Z,101034
2017-08-07T01:45:35.305Z,101038
2017-08-07T01:50:38.490Z,101028
2017-08-07T01:55:41.689Z,101025
2017-08-07T02:00:44.888Z,101026
2017-08-07T02:05:48.058Z,101026
2017-08-07T02:10:51.241Z,101019
2017-08-07T02:15:54.409Z,101016
2017-08-07T02:20:57.597Z,101010
2017-08-07T02:26:01.545Z,101003
2017-08-07T02:31:04.730Z,101002
2017-08-07T02:36:07.943Z,100997
2017-08-07T02:41:11.131Z,100994
2017-08-07T02:46:15.088Z,100994
2017-08-07T02:51:18.270Z,100996
2017-08-07T02:56:22.221Z,100993
2017-08-07T03:01:25.415Z,100997
2017-08-07T03:06:28.612Z,100986
2017-08-07T03:11:32.544Z,100988
2017-08-07T03:16:35.722Z,100973
2017-08-07T03:21:38.952Z,100975
2017-08-07T03:26:42.910Z,100978
2017-08-07T03:31:46.089Z,100984
2017-08-07T03:36:49.278Z,100976
2017-08-07T03:41:53.238Z,100970
2017-08-07T03:46:56.395Z,100973
2017-08-07T03:51:59.587Z,100959
2017-08-07T03:57:02.785Z,100968
2017-08-07T04:02:05.972Z,100951
2017-08-07T04:07:09.173Z,100966
2017-08-07T04:12:12.363Z,100968
2017-08-07T04:17:15.548Z,100969
2017-08-07T04:22:19.521Z,100958
2017-08-07T04:27:22.710Z,100956
2017-08-07T04:32:25.934Z,100960
2017-08-07T04:37:29.137Z,100956
2017-08-07T04:42:32.318Z,100956
2017-08-07T04:47:35.496Z,100963
2017-08-07T04:52:38.678Z,100955
2017-08-07T04:57:41.874Z,100952
2017-08-07T05:02:45.053Z,100948
2017-08-07T05:07:48.240Z,100947
2017-08-07T05:12:52.201Z,100937
2017-08-07T05:17:55.367Z,100935
2017-08-07T05:22:59.330Z,100931
2017-08-07T05:28:02.527Z,100924
2017-08-07T05:33:05.699Z,100936
2017-08-07T05:38:09.652Z,100937
2017-08-07T05:43:12.842Z,100938
2017-08-07T05:48:16.781Z,100933
2017-08-07T05:53:19.949Z,100927
2017-08-07T05:58:23.218Z,100931
2017-08-07T06:03:26.442Z,100937
2017-08-07T06:08:29.661Z,100927
2017-08-07T06:13:32.863Z,100921
2017-08-07T06:18:36.052Z,100938
2017-08-07T06:23:39.231Z,100940
2017-08-07T06:28:42.461Z,100940
2017-08-07T06:33:45.655Z,100943
2017-08-07T06:38:48.838Z,100938
2017-08-07T06:43:52.025Z,100928
2017-08-07T06:48:56.006Z,100933
2017-08-07T06:53:59.175Z,100922
2017-08-07T06:59:02.357Z,100914
2017-08-07T07:04:05.575Z,100922
2017-08-07T07:09:09.517Z,100910
2017-08-07T07:14:12.723Z,100916
2017-08-07T07:19:16.657Z,100901
2017-08-07T07:24:19.834Z,100898
2017-08-07T07:29:23.769Z,100893
2017-08-07T07:34:27.720Z,100897
2017-08-07T07:39:31.013Z,100900
2017-08-07T07:44:34.953Z,100904
2017-08-07T07:49:38.144Z,100907
2017-08-07T07:54:42.069Z,100900
2017-08-07T07:59:45.317Z,100900
2017-08-07T08:04:48.526Z,100891
2017-08-07T08:09:51.716Z,100879
2017-08-07T08:14:54.905Z,100877
2017-08-07T08:19:58.097Z,100867
2017-08-07T08:25:02.054Z,100874
2017-08-07T08:30:05.239Z,100869
2017-08-07T08:35:09.190Z,100875
2017-08-07T08:40:12.370Z,100875
2017-08-07T08:45:15.597Z,100870
2017-08-07T08:50:18.777Z,100856
2017-08-07T08:55:22.736Z,100854
2017-08-07T09:00:25.907Z,100860
2017-08-07T09:05:29.091Z,100849
2017-08-07T09:10:32.261Z,100844
2017-08-07T09:15:35.569Z,100846
2017-08-07T09:20:38.900Z,100844
2017-08-07T09:25:42.089Z,100834
2017-08-07T09:30:45.289Z,100828
2017-08-07T09:35:48.497Z,100832
2017-08-07T09:40:51.705Z,100820
2017-08-07T09:45:54.942Z,100823
2017-08-07T09:50:58.123Z,100824
2017-08-07T09:56:01.320Z,100819
2017-08-07T10:01:04.558Z,100815
2017-08-07T10:06:07.732Z,100823
2017-08-07T10:11:10.997Z,100803
2017-08-07T10:16:14.931Z,100799
2017-08-07T10:21:18.881Z,100803
2017-08-07T10:26:22.094Z,100800
2017-08-07T10:31:25.285Z,100790
2017-08-07T10:36:28.482Z,100780
2017-08-07T10:41:31.654Z,100789
2017-08-07T10:46:34.845Z,100776
2017-08-07T10:51:38.037Z,100768
2017-08-07T10:56:41.215Z,100763
2017-08-07T11:01:44.569Z,100757
2017-08-07T11:06:47.746Z,100756
2017-08-07T11:11:50.948Z,100748
2017-08-07T11:16:54.365Z,100747
2017-08-07T11:21:57.560Z,100733
2017-08-07T11:27:00.856Z,100725
2017-08-07T11:32:04.774Z,100709
2017-08-07T11:37:07.978Z,100713
2017-08-07T11:42:11.173Z,100711
2017-08-07T11:47:15.137Z,100701
2017-08-07T11:52:18.416Z,100703
2017-08-07T11:57:21.724Z,100706
2017-08-07T12:02:24.905Z,100689
2017-08-07T12:07:28.097Z,100675
2017-08-07T12:12:31.324Z,100680
2017-08-07T12:17:35.290Z,100667
2017-08-07T12:22:38.473Z,100671
2017-08-07T12:27:42.425Z,100665
2017-08-07T12:32:45.611Z,100659
2017-08-07T12:37:48.798Z,100664
2017-08-07T12:42:52.761Z,100652
2017-08-07T12:47:55.958Z,100655
2017-08-07T12:52:59.134Z,100641
2017-08-07T12:58:03.093Z,100642
2017-08-07T13:03:06.273Z,100641
2017-08-07T13:08:10.222Z,100649
2017-08-07T13:13:13.423Z,100642
2017-08-07T13:18:16.619Z,100623
2017-08-07T13:23:20.581Z,100615
2017-08-07T13:28:23.774Z,100614
2017-08-07T13:33:26.961Z,100611
2017-08-07T13:38:30.163Z,100601
2017-08-07T13:43:34.117Z,100603
2017-08-07T13:48:37.294Z,100596
2017-08-07T13:53:41.263Z,100590
2017-08-07T13:58:44.454Z,100593
2017-08-07T14:03:47.649Z,100588
2017-08-07T14:08:50.904Z,100576
2017-08-07T14:13:54.072Z,100570
2017-08-07T14:18:57.289Z,100562
2017-08-07T14:24:00.475Z,100552
2017-08-07T14:29:03.773Z,100559
2017-08-07T14:34:07.701Z,100562
2017-08-07T14:39:10.966Z,100550
2017-08-07T14:44:14.171Z,100553
2017-08-07T14:49:17.390Z,100554
2017-08-07T14:54:20.557Z,100534
2017-08-07T14:59:23.759Z,100539
2017-08-07T15:04:27.001Z,100539
2017-08-07T15:09:30.531Z,100531
2017-08-07T15:14:33.706Z,100530
2017-08-07T15:19:36.936Z,100528
2017-08-07T15:24:40.101Z,100529
2017-08-07T15:29:43.307Z,100522
2017-08-07T15:34:46.511Z,100517
2017-08-07T15:39:49.698Z,100500
2017-08-07T15:44:52.920Z,100495
2017-08-07T15:49:56.092Z,100481
2017-08-07T15:55:00.057Z,100476
2017-08-07T16:00:03.233Z,100469
2017-08-07T16:05:06.446Z,100472
2017-08-07T16:10:09.651Z,100471
2017-08-07T16:15:13.608Z,100463
2017-08-07T16:20:16.809Z,100457
2017-08-07T16:25:19.983Z,100453
2017-08-07T16:30:32.760Z,100450
2017-08-07T16:35:35.968Z,100446
2017-08-07T16:40:39.208Z,100453
2017-08-07T16:45:42.387Z,100439
2017-08-07T16:50:45.647Z,100432
2017-08-07T16:55:49.589Z,100431
2017-08-07T17:00:52.785Z,100424
2017-08-07T17:05:56.032Z,100417
2017-08-07T17:10:59.197Z,100410
2017-08-07T17:16:03.217Z,100417
2017-08-07T17:21:07.160Z,100414
2017-08-07T17:26:10.352Z,100423
2017-08-07T17:31:14.601Z,100410
2017-08-07T17:36:17.780Z,100398
2017-08-07T17:41:21.761Z,100388
2017-08-07T17:46:24.967Z,100391
2017-08-07T17:51:28.191Z,100392
2017-08-07T17:56:31.379Z,100393
2017-08-07T18:01:34.573Z,100391
2017-08-07T18:06:37.766Z,100392
2017-08-07T18:11:40.961Z,100383
2017-08-07T18:16:44.160Z,100384
2017-08-07T18:21:48.144Z,100375
2017-08-07T18:26:51.321Z,100374
2017-08-07T18:31:54.514Z,100367
2017-08-07T18:36:57.722Z,100365
2017-08-07T18:42:00.939Z,100368
2017-08-07T18:47:04.137Z,100365
2017-08-07T18:52:07.314Z,100382
2017-08-07T18:57:11.281Z,100368
2017-08-07T19:02:14.470Z,100360
2017-08-07T19:07:17.677Z,100350
2017-08-07T19:12:20.868Z,100359
2017-08-07T19:17:24.064Z,100348
2017-08-07T19:22:28.041Z,100349
2017-08-07T19:27:31.233Z,100358
2017-08-07T19:32:34.422Z,100356
2017-08-07T19:37:37.658Z,100363
2017-08-07T19:42:40.846Z,100365
2017-08-07T19:47:44.035Z,100367
2017-08-07T19:52:48.060Z,100364
2017-08-07T19:57:52.074Z,100371
2017-08-07T20:02:56.037Z,100363
2017-08-07T20:07:59.234Z,100358
2017-08-07T20:13:02.431Z,100360
2017-08-07T20:18:05.682Z,100359
2017-08-07T20:23:08.843Z,100359
2017-08-07T20:28:12.086Z,100352
2017-08-07T20:33:15.266Z,100364
2017-08-07T20:38:18.485Z,100357
2017-08-07T20:43:21.774Z,100345
2017-08-07T20:48:25.762Z,100356
2017-08-07T20:53:29.049Z,100347
2017-08-07T20:58:32.273Z,100346
2017-08-07T21:03:35.450Z,100350
2017-08-07T21:08:38.622Z,100346
2017-08-07T21:13:41.872Z,100336
2017-08-07T21:18:45.086Z,100332
2017-08-07T21:23:48.282Z,100333
2017-08-07T21:28:51.552Z,100326
2017-08-07T21:33:55.556Z,100317
2017-08-07T21:38:58.754Z,100322
2017-08-07T21:44:01.943Z,100308
2017-08-07T21:49:05.197Z,100304
2017-08-07T21:54:09.156Z,100305
2017-08-07T21:59:12.335Z,100306
2017-08-07T22:04:15.511Z,100301
2017-08-07T22:09:19.467Z,100301
2017-08-07T22:14:22.675Z,100301
2017-08-07T22:19:25.873Z,100294
2017-08-07T22:24:29.061Z,100294
2017-08-07T22:29:33.040Z,100287
2017-08-07T22:34:36.244Z,100292
2017-08-07T22:39:39.414Z,100288
2017-08-07T22:44:42.606Z,100290
2017-08-07T22:49:46.567Z,100292
2017-08-07T22:54:49.733Z,100287
2017-08-07T22:59:53.706Z,100283
2017-08-07T23:04:56.932Z,100279
2017-08-07T23:10:00.103Z,100280
2017-08-07T23:15:03.295Z,100271
2017-08-07T23:20:07.276Z,100266
2017-08-07T23:25:10.457Z,100266
2017-08-07T23:30:13.921Z,100255
2017-08-07T23:35:17.892Z,100239
2017-08-07T23:40:21.081Z,100240
2017-08-07T23:45:24.250Z,100224
2017-08-07T23:50:27.485Z,100224
2017-08-07T23:55:31.413Z,100212
